Time;durP1;ratioP1;P1;durP2;ratioP2;P2;SDS_P1;SDS_P2;PMS_P1;PMS_P2;Temp;Humidity;BMP_temperature;BMP_pressure;BME280_temperature;BME280_humidity;BME280_pressure;Samples;Min_cycle;Max_cycle;Signal;HPM_P1;HPM_P2
2023/05/14 00:01:24;;;;;;;8.50;7.70;;;12.40;99.90;;;;;;5097897;28;20430;-40
2023/05/14 00:03:50;;;;;;;9.60;8.80;;;12.40;99.90;;;;;;5097183;28;20183;-43
2023/05/14 00:06:15;;;;;;;8.53;7.73;;;12.40;99.90;;;;;;5096716;28;20246;-41
2023/05/14 00:08:41;;;;;;;8.77;8.03;;;12.30;99.90;;;;;;5097892;28;20200;-44
2023/05/14 00:11:07;;;;;;;9.77;8.87;;;12.20;99.90;;;;;;5097559;28;20533;-43
2023/05/14 00:13:34;;;;;;;9.90;9.00;;;12.20;99.90;;;;;;5097353;28;20180;-42
2023/05/14 00:15:59;;;;;;;9.30;8.50;;;12.10;99.90;;;;;;5098332;28;20876;-42
2023/05/14 00:18:25;;;;;;;9.40;8.70;;;12.00;99.90;;;;;;5096321;28;20434;-40
2023/05/14 00:20:53;;;;;;;9.93;9.03;;;12.00;99.90;;;;;;5095847;28;20450;-43
2023/05/14 00:23:22;;;;;;;9.10;8.33;;;11.90;99.90;;;;;;5098741;28;20204;-41
2023/05/14 00:25:47;;;;;;;10.33;9.30;;;11.90;99.90;;;;;;5098035;28;20456;-41
2023/05/14 00:28:13;;;;;;;9.83;9.00;;;11.90;99.90;;;;;;5098420;28;20477;-41
2023/05/14 00:30:38;;;;;;;11.40;10.30;;;11.80;99.90;;;;;;5099101;28;20237;-41
2023/05/14 00:33:05;;;;;;;11.43;10.43;;;11.80;99.90;;;;;;5098285;28;20743;-40
2023/05/14 00:35:31;;;;;;;10.00;9.20;;;11.80;99.90;;;;;;5098873;28;20192;-40
2023/05/14 00:37:56;;;;;;;10.63;9.63;;;11.80;99.90;;;;;;5099252;28;20513;-41
2023/05/14 00:40:26;;;;;;;10.13;9.33;;;11.80;99.90;;;;;;5098031;28;20525;-41
2023/05/14 00:42:52;;;;;;;9.80;9.00;;;11.80;99.90;;;;;;5098390;28;20172;-42
2023/05/14 00:45:18;;;;;;;9.50;8.70;;;11.70;99.90;;;;;;5097498;28;20873;-41
2023/05/14 00:47:43;;;;;;;10.10;9.30;;;11.70;99.90;;;;;;5098439;28;20418;-42
2023/05/14 00:50:10;;;;;;;10.67;9.67;;;11.70;99.90;;;;;;5097869;28;20237;-42
2023/05/14 00:52:37;;;;;;;10.47;9.57;;;11.60;99.90;;;;;;5080269;28;20187;-42
2023/05/14 00:55:06;;;;;;;10.70;9.73;;;11.60;99.90;;;;;;5098743;28;20454;-42
2023/05/14 00:57:33;;;;;;;11.00;10.00;;;11.60;99.90;;;;;;5098660;28;20406;-41
2023/05/14 00:59:59;;;;;;;11.40;10.50;;;11.60;99.90;;;;;;5096925;28;20438;-42
2023/05/14 01:02:25;;;;;;;9.80;9.00;;;11.60;99.90;;;;;;5096094;28;20931;-42
2023/05/14 01:04:51;;;;;;;11.43;10.43;;;11.60;99.90;;;;;;5096277;28;20185;-40
2023/05/14 01:07:28;;;;;;;11.20;10.10;;;11.50;1.00;;;;;;5094602;28;20479;-40
2023/05/14 01:10:00;;;;;;;12.50;11.40;;;11.50;1.00;;;;;;5096980;28;20520;-41
2023/05/14 01:12:37;;;;;;;11.07;10.17;;;11.50;1.00;;;;;;5095571;28;20414;-46
2023/05/14 01:15:05;;;;;;;11.03;10.03;;;11.50;1.00;;;;;;5095204;28;20418;-41
2023/05/14 01:17:32;;;;;;;11.17;10.17;;;11.50;1.00;;;;;;5095676;28;20418;-41
2023/05/14 01:19:59;;;;;;;10.40;9.50;;;11.50;1.00;;;;;;5095375;28;20496;-43
2023/05/14 01:22:27;;;;;;;10.83;9.97;;;11.50;1.00;;;;;;5096552;28;20492;-40
2023/05/14 01:24:52;;;;;;;11.53;10.53;;;11.50;1.00;;;;;;5096432;28;20449;-40
2023/05/14 01:27:37;;;;;;;11.27;10.27;;;11.50;1.00;;;;;;5096219;28;20840;-46
2023/05/14 01:30:26;;;;;;;10.93;10.00;;;11.50;1.00;;;;;;5096107;28;20501;-40
2023/05/14 01:32:55;;;;;;;11.60;10.60;;;11.40;1.00;;;;;;5097280;28;20618;-41
2023/05/14 01:35:28;;;;;;;12.30;11.20;;;11.40;1.00;;;;;;5098106;28;20541;-40
2023/05/14 01:38:00;;;;;;;11.77;10.67;;;11.40;1.00;;;;;;5096416;28;20407;-40
2023/05/14 01:40:26;;;;;;;11.50;10.50;;;11.40;1.00;;;;;;5079314;28;20678;-40
2023/05/14 01:42:52;;;;;;;13.30;12.20;;;11.30;1.00;;;;;;5096552;28;20410;-41
2023/05/14 01:45:21;;;;;;;12.20;11.10;;;11.30;1.00;;;;;;5097341;28;20193;-41
2023/05/14 01:47:47;;;;;;;12.80;11.60;;;11.30;1.00;;;;;;5096539;28;20411;-40
2023/05/14 01:50:13;;;;;;;12.40;11.10;;;11.30;1.00;;;;;;5096248;28;20542;-40
2023/05/14 01:52:38;;;;;;;12.93;11.73;;;11.20;1.00;;;;;;5096180;28;20462;-40
2023/05/14 01:55:05;;;;;;;11.80;10.80;;;11.20;1.00;;;;;;5095308;28;20195;-40
2023/05/14 01:57:30;;;;;;;12.53;11.43;;;11.20;1.00;;;;;;5095835;28;20181;-39
2023/05/14 01:59:56;;;;;;;11.30;10.30;;;11.20;1.00;;;;;;5095204;28;20846;-44
2023/05/14 02:02:22;;;;;;;12.20;11.10;;;11.10;1.00;;;;;;5096874;28;20264;-41
2023/05/14 02:04:48;;;;;;;13.50;12.30;;;11.10;1.00;;;;;;5096662;28;20365;-41
2023/05/14 02:07:13;;;;;;;11.53;10.60;;;11.10;1.00;;;;;;5096889;28;20565;-40
2023/05/14 02:09:39;;;;;;;10.87;9.87;;;11.10;1.00;;;;;;5094282;28;20208;-40
2023/05/14 02:12:06;;;;;;;11.67;10.67;;;11.00;1.00;;;;;;5095176;28;20180;-41
2023/05/14 02:14:32;;;;;;;12.57;11.37;;;11.00;1.00;;;;;;5093575;28;20743;-42
2023/05/14 02:16:57;;;;;;;12.43;11.33;;;10.90;1.00;;;;;;5095268;28;20395;-41
2023/05/14 02:19:23;;;;;;;12.23;11.10;;;10.90;1.00;;;;;;5094700;28;20184;-41
2023/05/14 02:21:49;;;;;;;11.67;10.47;;;10.90;1.00;;;;;;5094694;28;20191;-39
2023/05/14 02:27:36;;;;;;;11.80;10.60;;;10.80;1.00;;;;;;5094610;28;20306;-40
2023/05/14 02:30:03;;;;;;;12.03;11.03;;;10.80;1.00;;;;;;5093470;28;20557;-41
2023/05/14 02:32:30;;;;;;;13.77;12.57;;;10.70;1.00;;;;;;5095189;28;20496;-39
2023/05/14 02:34:55;;;;;;;13.40;12.30;;;10.70;1.00;;;;;;5094133;28;20430;-40
2023/05/14 02:37:21;;;;;;;14.03;12.70;;;10.60;1.00;;;;;;5095223;28;20542;-38
2023/05/14 02:39:47;;;;;;;13.90;12.70;;;10.60;1.00;;;;;;5096953;28;20188;-39
2023/05/14 02:42:13;;;;;;;15.10;13.80;;;10.50;1.00;;;;;;5097262;28;20240;-39
2023/05/14 02:44:39;;;;;;;15.40;12.70;;;10.50;1.00;;;;;;5096999;28;20521;-41
2023/05/14 02:47:05;;;;;;;14.73;13.23;;;10.40;1.00;;;;;;5096974;28;20418;-39
2023/05/14 02:49:31;;;;;;;15.00;13.70;;;10.40;1.00;;;;;;5096092;28;20481;-39
2023/05/14 02:51:57;;;;;;;15.57;14.17;;;10.40;1.00;;;;;;5096629;28;20681;-42
2023/05/14 02:54:22;;;;;;;14.80;13.50;;;10.30;1.00;;;;;;5096772;28;20173;-41
2023/05/14 02:56:48;;;;;;;14.73;13.43;;;10.30;1.00;;;;;;5097172;28;20446;-42
2023/05/14 02:59:13;;;;;;;13.87;12.60;;;10.30;1.00;;;;;;5095966;28;20271;-39
2023/05/14 03:01:39;;;;;;;16.33;13.37;;;10.30;1.00;;;;;;5096605;28;20500;-40
2023/05/14 03:04:05;;;;;;;14.47;13.17;;;10.30;1.00;;;;;;5096970;28;20202;-41
2023/05/14 03:06:30;;;;;;;13.87;12.50;;;10.30;1.00;;;;;;5096523;28;20197;-42
2023/05/14 03:08:56;;;;;;;15.80;14.30;;;10.30;1.00;;;;;;5095531;28;20222;-41
2023/05/14 03:11:21;;;;;;;16.57;15.07;;;10.30;1.00;;;;;;5095871;28;20265;-44
2023/05/14 03:13:47;;;;;;;16.97;15.40;;;10.30;1.00;;;;;;5097815;28;20184;-38
2023/05/14 03:16:13;;;;;;;17.20;15.60;;;10.30;1.00;;;;;;5100616;28;20195;-41
2023/05/14 03:18:38;;;;;;;16.90;15.20;;;10.30;1.00;;;;;;5100381;28;20176;-42
2023/05/14 03:21:04;;;;;;;17.07;15.57;;;10.30;1.00;;;;;;5099894;28;20188;-43
2023/05/14 03:23:33;;;;;;;17.03;15.43;;;10.30;1.00;;;;;;5099991;28;20438;-41
2023/05/14 03:25:59;;;;;;;16.53;14.97;;;10.20;1.00;;;;;;5100143;28;20176;-42
2023/05/14 03:28:25;;;;;;;17.43;15.83;;;10.30;1.00;;;;;;5097875;28;20528;-41
2023/05/14 03:30:51;;;;;;;16.70;15.20;;;10.20;1.00;;;;;;5097386;28;20461;-41
2023/05/14 03:33:16;;;;;;;17.13;15.57;;;10.20;1.00;;;;;;5097547;28;20260;-40
2023/05/14 03:35:42;;;;;;;17.23;15.63;;;10.20;1.00;;;;;;5098595;28;20243;-41
2023/05/14 03:38:08;;;;;;;16.27;14.77;;;10.20;1.00;;;;;;5098147;28;20501;-40
2023/05/14 03:40:33;;;;;;;16.43;14.93;;;10.20;1.00;;;;;;5098391;28;20492;-42
2023/05/14 03:42:59;;;;;;;17.40;15.80;;;10.20;1.00;;;;;;5098456;28;20432;-41
2023/05/14 03:45:25;;;;;;;17.23;15.53;;;10.20;1.00;;;;;;5097276;28;20225;-39
2023/05/14 03:47:51;;;;;;;16.70;15.07;;;10.20;1.00;;;;;;5098458;28;20449;-40
2023/05/14 03:50:16;;;;;;;17.60;15.93;;;10.20;1.00;;;;;;5099940;28;20469;-39
2023/05/14 03:52:43;;;;;;;16.73;15.03;;;10.20;1.00;;;;;;5099704;28;20507;-39
2023/05/14 03:55:09;;;;;;;18.27;16.57;;;10.20;1.00;;;;;;5099779;28;20172;-41
2023/05/14 03:57:35;;;;;;;15.77;14.27;;;10.20;1.00;;;;;;5098164;28;20477;-40
2023/05/14 04:00:01;;;;;;;15.20;13.80;;;10.20;1.00;;;;;;5098538;28;20302;-40
2023/05/14 04:02:27;;;;;;;16.97;15.37;;;10.20;1.00;;;;;;5098378;28;20411;-40
2023/05/14 04:04:52;;;;;;;18.50;16.73;;;10.20;1.00;;;;;;5098033;28;20434;-40
2023/05/14 04:07:18;;;;;;;16.73;15.13;;;10.10;1.00;;;;;;5099401;28;20176;-40
2023/05/14 04:09:43;;;;;;;16.53;14.93;;;10.10;1.00;;;;;;5099757;28;20220;-41
2023/05/14 04:12:09;;;;;;;17.63;15.97;;;10.20;1.00;;;;;;5099594;28;20179;-40
2023/05/14 04:14:35;;;;;;;16.73;15.20;;;10.20;1.00;;;;;;5099263;28;20175;-39
2023/05/14 04:17:00;;;;;;;15.40;13.90;;;10.20;1.00;;;;;;5099049;28;20179;-39
2023/05/14 04:19:26;;;;;;;17.60;15.90;;;10.20;1.00;;;;;;5097726;28;20168;-40
2023/05/14 04:21:52;;;;;;;15.70;14.30;;;10.30;1.00;;;;;;5098515;28;20176;-40
2023/05/14 04:24:17;;;;;;;15.00;13.50;;;10.30;1.00;;;;;;5098659;28;20184;-39
2023/05/14 04:26:43;;;;;;;16.23;14.70;;;10.40;1.00;;;;;;5098008;28;20469;-39
2023/05/14 04:29:09;;;;;;;16.53;15.00;;;10.40;1.00;;;;;;5097407;28;20268;-40
2023/05/14 04:31:35;;;;;;;15.63;13.90;;;10.40;1.00;;;;;;5098118;28;20245;-41
2023/05/14 04:34:01;;;;;;;15.13;13.73;;;10.40;1.00;;;;;;5098151;28;20179;-40
2023/05/14 04:36:26;;;;;;;14.83;13.43;;;10.50;1.00;;;;;;5098068;28;20426;-40
2023/05/14 04:38:52;;;;;;;15.87;14.40;;;10.50;1.00;;;;;;5097970;28;20581;-38
2023/05/14 04:41:18;;;;;;;14.40;13.10;;;10.50;1.00;;;;;;5098156;28;20584;-40
2023/05/14 04:43:43;;;;;;;15.00;13.57;;;10.50;1.00;;;;;;5097314;28;20271;-40
2023/05/14 04:46:10;;;;;;;15.30;13.90;;;10.60;1.00;;;;;;5097355;28;20582;-38
2023/05/14 04:48:36;;;;;;;15.63;14.23;;;10.60;1.00;;;;;;5096387;28;20937;-42
2023/05/14 04:51:01;;;;;;;13.47;12.27;;;10.60;1.00;;;;;;5095760;28;20478;-39
2023/05/14 04:53:27;;;;;;;13.73;12.53;;;10.60;1.00;;;;;;5096391;28;20662;-40
2023/05/14 04:55:54;;;;;;;14.80;13.40;;;10.60;1.00;;;;;;5096420;28;20176;-39
2023/05/14 04:58:22;;;;;;;15.50;14.10;;;10.60;1.00;;;;;;5097457;28;20198;-42
2023/05/14 05:00:48;;;;;;;15.03;13.53;;;10.60;1.00;;;;;;5097571;28;20895;-43
2023/05/14 05:03:14;;;;;;;16.50;14.93;;;10.60;1.00;;;;;;5097810;28;20410;-40
2023/05/14 05:05:40;;;;;;;15.90;14.40;;;10.60;1.00;;;;;;5096675;28;20434;-39
2023/05/14 05:08:06;;;;;;;16.10;14.60;;;10.60;1.00;;;;;;5096347;28;20178;-41
2023/05/14 05:10:32;;;;;;;15.77;14.37;;;10.60;1.00;;;;;;5097113;28;20464;-41
2023/05/14 05:12:57;;;;;;;15.67;14.20;;;10.60;1.00;;;;;;5097347;28;20818;-39
2023/05/14 05:15:23;;;;;;;15.10;13.70;;;10.70;1.00;;;;;;5097303;28;20578;-40
2023/05/14 05:17:49;;;;;;;15.77;14.20;;;10.70;1.00;;;;;;5096905;28;20173;-41
2023/05/14 05:20:15;;;;;;;15.47;13.97;;;10.80;1.00;;;;;;5095974;28;20180;-38
2023/05/14 05:22:41;;;;;;;15.57;14.13;;;10.70;1.00;;;;;;5097198;28;20411;-39
2023/05/14 05:25:07;;;;;;;16.73;14.70;;;10.80;1.00;;;;;;5097408;28;20851;-40
2023/05/14 05:27:34;;;;;;;16.47;14.77;;;10.80;1.00;;;;;;5097346;28;20168;-40
2023/05/14 05:30:03;;;;;;;16.77;15.17;;;10.90;1.00;;;;;;5096361;28;20776;-40
2023/05/14 05:32:29;;;;;;;17.47;15.87;;;11.00;1.00;;;;;;5095769;28;20464;-41
2023/05/14 05:34:55;;;;;;;16.17;14.57;;;11.00;1.00;;;;;;5095195;28;20422;-43
2023/05/14 05:37:21;;;;;;;15.63;14.13;;;11.10;1.00;;;;;;5095627;28;20407;-41
2023/05/14 05:39:47;;;;;;;18.07;16.33;;;11.20;1.00;;;;;;5097908;28;20458;-42
2023/05/14 05:42:13;;;;;;;15.80;14.30;;;11.30;1.00;;;;;;5079501;28;20553;-41
2023/05/14 05:44:40;;;;;;;15.20;13.80;;;11.30;1.00;;;;;;5095957;28;20940;-40
2023/05/14 05:47:06;;;;;;;17.53;15.60;;;11.40;1.00;;;;;;5096526;28;20684;-40
2023/05/14 05:49:32;;;;;;;17.00;15.40;;;11.50;1.00;;;;;;5093865;28;20474;-41
2023/05/14 05:51:58;;;;;;;15.37;13.73;;;11.50;1.00;;;;;;5095223;28;20418;-39
2023/05/14 05:54:24;;;;;;;16.17;14.57;;;11.60;1.00;;;;;;5096063;28;20172;-40
2023/05/14 05:56:50;;;;;;;15.10;13.63;;;11.60;99.90;;;;;;5097058;28;20413;-40
2023/05/14 05:59:16;;;;;;;15.20;13.80;;;11.60;99.90;;;;;;5096768;28;20790;-40
2023/05/14 06:01:42;;;;;;;14.23;13.03;;;11.70;99.90;;;;;;5096098;28;20410;-41
2023/05/14 06:04:08;;;;;;;14.70;13.30;;;11.70;99.90;;;;;;5097048;28;20414;-41
2023/05/14 06:06:34;;;;;;;14.07;12.87;;;11.70;99.90;;;;;;5079470;28;20720;-40
2023/05/14 06:09:00;;;;;;;13.73;12.53;;;11.70;99.90;;;;;;5096220;28;20741;-41
2023/05/14 06:11:27;;;;;;;14.20;12.90;;;11.70;99.90;;;;;;5087763;28;20185;-44
2023/05/14 06:13:52;;;;;;;13.10;11.90;;;11.70;99.90;;;;;;5076613;28;20543;-41
2023/05/14 06:16:18;;;;;;;13.40;12.13;;;11.70;99.90;;;;;;5075576;28;20427;-40
2023/05/14 06:18:45;;;;;;;12.67;11.40;;;11.70;99.90;;;;;;5076386;28;20182;-40
2023/05/14 06:21:10;;;;;;;13.77;12.47;;;11.70;99.90;;;;;;5075369;28;20189;-40
2023/05/14 06:23:36;;;;;;;13.30;12.00;;;11.80;99.90;;;;;;5074928;28;20689;-39
2023/05/14 06:26:02;;;;;;;18.67;12.80;;;11.80;99.90;;;;;;5075723;28;20192;-40
2023/05/14 06:28:28;;;;;;;14.13;12.83;;;11.90;99.90;;;;;;5075240;28;20225;-41
2023/05/14 06:30:53;;;;;;;12.17;11.07;;;11.90;99.90;;;;;;5076223;28;20617;-40
2023/05/14 06:33:28;;;;;;;14.20;13.00;;;12.00;99.90;;;;;;5074919;28;20561;-40
2023/05/14 06:35:54;;;;;;;14.37;13.13;;;12.00;99.90;;;;;;5074924;28;20191;-39
2023/05/14 06:38:19;;;;;;;13.50;12.17;;;12.10;99.90;;;;;;5072476;28;20480;-40
2023/05/14 06:40:45;;;;;;;12.70;11.50;;;12.10;99.90;;;;;;5074469;28;20184;-39
2023/05/14 06:43:10;;;;;;;13.47;12.27;;;12.20;99.90;;;;;;5074323;28;20165;-40
2023/05/14 06:45:36;;;;;;;13.93;12.63;;;12.30;99.90;;;;;;5076486;28;20267;-40
2023/05/14 06:48:02;;;;;;;13.07;11.77;;;12.30;99.90;;;;;;5077617;28;20180;-40
2023/05/14 06:50:28;;;;;;;12.07;10.97;;;12.30;99.90;;;;;;5078306;28;20184;-39
2023/05/14 06:52:53;;;;;;;14.03;12.73;;;12.40;99.90;;;;;;5080286;28;20302;-41
2023/05/14 06:55:19;;;;;;;12.93;11.63;;;12.40;23.60;;;;;;5079330;28;20268;-43
2023/05/14 06:57:45;;;;;;;14.33;13.00;;;12.50;31.70;;;;;;5078259;28;20407;-40
2023/05/14 07:00:13;;;;;;;13.10;11.90;;;12.60;1.00;;;;;;5082630;28;20192;-40
2023/05/14 07:02:38;;;;;;;12.53;11.43;;;12.70;1.00;;;;;;5098741;28;20465;-40
2023/05/14 07:05:04;;;;;;;13.13;11.93;;;12.80;1.00;;;;;;5097206;28;20429;-40
2023/05/14 07:07:30;;;;;;;12.07;10.83;;;13.00;1.00;;;;;;5097294;28;20203;-43
2023/05/14 07:09:56;;;;;;;13.10;11.80;;;13.10;1.00;;;;;;5098636;28;20470;-42
2023/05/14 07:12:21;;;;;;;12.90;11.73;;;13.20;1.00;;;;;;5097533;28;20223;-41
2023/05/14 07:14:47;;;;;;;12.50;11.30;;;13.40;99.90;;;;;;5098041;28;20272;-40
2023/05/14 07:17:14;;;;;;;12.47;11.37;;;13.60;99.90;;;;;;5098447;28;20171;-42
2023/05/14 07:19:40;;;;;;;13.30;11.93;;;13.80;99.90;;;;;;5097678;28;20263;-41
2023/05/14 07:22:06;;;;;;;14.17;12.80;;;14.00;54.00;;;;;;5099301;28;20475;-41
2023/05/14 07:24:32;;;;;;;12.53;11.43;;;14.10;1.00;;;;;;5099383;28;20430;-40
2023/05/14 07:26:57;;;;;;;11.63;10.63;;;14.30;47.90;;;;;;5097596;28;20795;-43
2023/05/14 07:29:24;;;;;;;12.37;11.27;;;14.40;1.00;;;;;;5097405;28;20227;-41
2023/05/14 07:31:50;;;;;;;12.67;11.53;;;14.50;1.00;;;;;;5098504;28;20172;-42
2023/05/14 07:34:15;;;;;;;11.77;10.77;;;14.50;1.00;;;;;;5096724;28;20422;-41
2023/05/14 07:36:41;;;;;;;10.90;9.90;;;14.70;99.90;;;;;;5097752;28;20591;-42
2023/05/14 07:39:07;;;;;;;11.87;10.67;;;14.70;91.70;;;;;;5096236;28;20176;-41
2023/05/14 07:41:33;;;;;;;11.70;10.70;;;14.80;1.50;;;;;;5097392;28;20240;-42
2023/05/14 07:43:59;;;;;;;9.87;8.90;;;14.80;1.00;;;;;;5096386;28;20418;-41
2023/05/14 07:46:25;;;;;;;11.17;10.00;;;14.90;1.00;;;;;;5095511;28;20430;-41
2023/05/14 07:48:52;;;;;;;11.40;10.40;;;15.00;1.00;;;;;;5096834;28;20379;-42
2023/05/14 07:51:20;;;;;;;11.33;10.23;;;15.00;99.90;;;;;;5096540;28;20426;-42
2023/05/14 07:53:46;;;;;;;11.53;10.53;;;15.00;99.90;;;;;;5084826;28;20863;-42
2023/05/14 07:56:11;;;;;;;11.73;10.63;;;15.10;1.00;;;;;;5077743;28;20427;-43
2023/05/14 07:58:37;;;;;;;12.10;11.00;;;15.20;1.00;;;;;;5077986;28;20882;-42
2023/05/14 08:01:05;;;;;;;11.40;10.40;;;15.20;99.90;;;;;;5089667;28;20215;-40
2023/05/14 08:03:33;;;;;;;12.23;10.93;;;15.20;99.90;;;;;;5097160;28;20777;-41
2023/05/14 08:05:58;;;;;;;10.50;9.53;;;15.30;1.00;;;;;;5096899;28;20836;-41
2023/05/14 08:08:25;;;;;;;11.20;10.20;;;15.20;99.90;;;;;;5076098;28;20485;-41
2023/05/14 08:10:52;;;;;;;11.53;10.53;;;15.50;99.90;;;;;;5058683;28;20231;-41
2023/05/14 08:13:18;;;;;;;12.07;11.00;;;15.70;99.90;;;;;;5058984;28;20518;-42
2023/05/14 08:15:44;;;;;;;12.00;10.80;;;15.80;1.00;;;;;;5073810;28;20522;-42
2023/05/14 08:18:10;;;;;;;12.80;11.70;;;16.00;63.70;;;;;;5075638;28;20161;-39
2023/05/14 08:20:38;;;;;;;12.87;11.50;;;16.00;1.00;;;;;;5075227;28;20441;-42
2023/05/14 08:23:03;;;;;;;11.20;10.20;;;16.00;1.00;;;;;;5076316;28;20516;-42
2023/05/14 08:25:30;;;;;;;13.90;11.90;;;16.30;1.00;;;;;;5076275;28;20518;-41
2023/05/14 08:27:55;;;;;;;11.90;10.87;;;16.40;99.90;;;;;;5059840;28;20247;-42
2023/05/14 08:30:23;;;;;;;13.67;12.50;;;16.50;99.90;;;;;;5076357;28;20581;-41
2023/05/14 08:32:54;;;;;;;13.80;12.60;;;16.70;1.00;;;;;;5059973;28;20455;-41
2023/05/14 08:35:20;;;;;;;12.20;11.10;;;16.80;1.00;;;;;;5076786;28;20583;-41
2023/05/14 08:37:56;;;;;;;12.20;11.00;;;17.00;99.90;;;;;;5076150;28;20425;-43
2023/05/14 08:40:23;;;;;;;11.10;10.00;;;17.20;99.90;;;;;;5075070;28;20192;-43
2023/05/14 08:42:50;;;;;;;12.20;11.10;;;17.40;55.00;;;;;;5074522;28;20426;-42
2023/05/14 08:45:32;;;;;;;12.03;10.93;;;17.60;1.00;;;;;;5074323;28;20431;-40
2023/05/14 08:48:00;;;;;;;11.97;10.50;;;17.60;1.00;;;;;;5056249;28;20427;-43
2023/05/14 08:50:26;;;;;;;10.80;9.70;;;17.60;1.00;;;;;;5072412;28;20749;-47
2023/05/14 08:52:54;;;;;;;11.80;10.80;;;17.60;1.00;;;;;;5073815;28;20482;-43
2023/05/14 08:55:25;;;;;;;12.83;11.50;;;17.80;1.00;;;;;;5075168;28;20522;-43
2023/05/14 08:57:50;;;;;;;11.30;10.40;;;17.60;1.00;;;;;;5070409;28;20427;-41
2023/05/14 09:00:17;;;;;;;9.83;8.93;;;17.70;1.00;;;;;;5070976;28;20458;-42
2023/05/14 09:02:43;;;;;;;11.10;10.20;;;17.70;1.00;;;;;;5070721;28;20189;-41
2023/05/14 09:05:09;;;;;;;11.30;10.30;;;18.00;1.00;;;;;;5053911;28;20436;-41
2023/05/14 09:07:35;;;;;;;11.43;10.43;;;18.30;1.00;;;;;;5071556;28;20424;-44
2023/05/14 09:10:02;;;;;;;10.87;9.87;;;18.50;99.90;;;;;;5069833;28;20240;-41
2023/05/14 09:12:28;;;;;;;10.50;9.50;;;18.70;99.90;;;;;;5073960;28;20184;-43
2023/05/14 09:14:53;;;;;;;11.43;10.37;;;19.20;99.90;;;;;;5070370;28;20431;-43
2023/05/14 09:17:19;;;;;;;13.20;9.13;;;19.70;99.90;;;;;;5072795;28;20268;-41
2023/05/14 09:19:47;;;;;;;9.83;8.93;;;20.30;99.90;;;;;;5052991;28;20193;-43
2023/05/14 09:22:15;;;;;;;9.83;8.97;;;20.90;64.30;;;;;;5072766;28;20501;-44
2023/05/14 09:24:41;;;;;;;11.90;10.07;;;21.10;20.30;;;;;;5074165;28;20435;-41
2023/05/14 09:27:08;;;;;;;10.37;8.57;;;21.50;1.00;;;;;;5075712;28;20428;-41
2023/05/14 09:29:33;;;;;;;7.50;6.90;;;21.30;1.00;;;;;;5083301;28;20903;-44
2023/05/14 09:32:03;;;;;;;8.90;8.10;;;21.40;1.00;;;;;;5093837;28;20455;-41
2023/05/14 09:34:33;;;;;;;9.53;8.73;;;21.40;1.00;;;;;;5095061;28;20565;-42
2023/05/14 09:37:07;;;;;;;8.27;7.57;;;21.40;1.00;;;;;;5076899;28;20422;-44
2023/05/14 09:39:35;;;;;;;8.60;7.83;;;21.30;1.00;;;;;;5094665;28;20541;-42
2023/05/14 09:42:01;;;;;;;9.67;8.77;;;21.20;1.00;;;;;;5094823;28;20427;-42
2023/05/14 09:44:27;;;;;;;8.50;7.80;;;21.00;1.00;;;;;;5094256;28;20426;-41
2023/05/14 09:46:53;;;;;;;8.80;8.00;;;20.70;1.00;;;;;;5095348;28;20176;-43
2023/05/14 09:49:24;;;;;;;8.90;8.10;;;20.50;1.00;;;;;;5092292;28;20462;-42
2023/05/14 09:51:51;;;;;;;8.50;7.70;;;20.30;1.00;;;;;;5076595;28;20430;-44
2023/05/14 09:54:17;;;;;;;7.60;7.07;;;20.20;1.00;;;;;;5090965;28;20425;-44
2023/05/14 09:56:44;;;;;;;8.50;7.80;;;20.00;1.00;;;;;;5094533;28;20819;-41
2023/05/14 09:59:11;;;;;;;8.13;7.47;;;19.60;1.00;;;;;;5093006;28;20266;-41
2023/05/14 10:01:37;;;;;;;8.27;7.57;;;19.30;1.00;;;;;;5074510;28;20597;-43
2023/05/14 10:04:06;;;;;;;8.53;7.73;;;19.10;1.00;;;;;;5092071;28;20177;-42
2023/05/14 10:06:37;;;;;;;9.13;8.40;;;18.80;1.00;;;;;;5084306;28;20463;-42
2023/05/14 10:09:05;;;;;;;9.50;8.70;;;18.80;1.00;;;;;;5092248;28;20492;-42
2023/05/14 10:11:32;;;;;;;8.80;8.10;;;18.60;1.00;;;;;;5093115;28;20533;-41
2023/05/14 10:14:17;;;;;;;9.00;8.10;;;18.70;1.00;;;;;;5093298;28;20418;-41
2023/05/14 10:16:47;;;;;;;8.80;8.10;;;18.90;1.00;;;;;;5092577;28;20823;-42
2023/05/14 10:19:14;;;;;;;8.20;7.50;;;18.90;1.00;;;;;;5093754;28;20426;-44
2023/05/14 10:21:44;;;;;;;7.70;6.90;;;19.00;1.00;;;;;;5092430;28;20426;-44
2023/05/14 10:24:10;;;;;;;6.23;5.70;;;19.20;1.00;;;;;;5094880;28;20418;-44
2023/05/14 10:26:38;;;;;;;7.00;6.40;;;19.90;1.00;;;;;;5095049;28;20541;-42
2023/05/14 10:29:05;;;;;;;7.50;6.80;;;20.70;1.00;;;;;;5093527;28;20903;-41
2023/05/14 10:31:54;;;;;;;6.67;6.07;;;21.40;1.00;;;;;;5089857;28;20463;-44
2023/05/14 10:34:40;;;;;;;6.73;6.13;;;22.30;1.00;;;;;;5088115;28;20415;-43
2023/05/14 10:37:08;;;;;;;6.90;6.33;;;22.90;1.00;;;;;;5055267;28;20572;-42
2023/05/14 10:39:45;;;;;;;7.13;5.93;;;23.00;1.00;;;;;;5073037;28;20430;-42
2023/05/14 10:42:14;;;;;;;6.80;6.20;;;23.70;1.00;;;;;;5072963;28;20426;-42
2023/05/14 10:44:54;;;;;;;6.60;5.97;;;23.80;1.00;;;;;;5071159;28;20853;-43
2023/05/14 10:47:20;;;;;;;6.47;5.97;;;23.70;1.00;;;;;;5072255;28;20415;-43
2023/05/14 10:49:48;;;;;;;7.00;6.40;;;23.90;1.00;;;;;;5072901;28;20797;-44
2023/05/14 10:52:16;;;;;;;7.00;6.40;;;23.90;1.00;;;;;;5072617;28;20420;-43
2023/05/14 10:54:53;;;;;;;6.33;5.73;;;23.90;1.00;;;;;;5072251;28;20415;-42
2023/05/14 10:57:20;;;;;;;7.40;6.80;;;23.90;1.00;;;;;;5072069;28;20411;-42
2023/05/14 10:59:53;;;;;;;6.40;5.90;;;23.80;1.00;;;;;;5071487;28;20423;-42
2023/05/14 11:02:33;;;;;;;7.47;6.77;;;23.90;1.00;;;;;;5078017;28;20489;-42
2023/05/14 11:05:07;;;;;;;6.77;6.27;;;23.80;1.00;;;;;;5070081;28;20446;-43
2023/05/14 11:07:36;;;;;;;7.60;7.00;;;23.80;1.00;;;;;;5072026;28;20433;-42
2023/05/14 11:10:08;;;;;;;7.40;6.80;;;24.10;1.00;;;;;;5070683;28;20466;-44
2023/05/14 11:12:35;;;;;;;7.40;6.80;;;24.60;1.00;;;;;;5054378;28;20431;-43
2023/05/14 11:15:03;;;;;;;7.80;7.20;;;25.60;1.00;;;;;;5071650;28;20442;-44
2023/05/14 11:17:30;;;;;;;7.43;6.73;;;26.30;1.00;;;;;;5080918;28;20410;-43
2023/05/14 11:19:56;;;;;;;6.37;5.87;;;27.10;1.00;;;;;;5091815;28;20437;-43
2023/05/14 11:22:23;;;;;;;6.30;5.80;;;27.60;1.00;;;;;;5091806;28;20480;-43
2023/05/14 11:24:49;;;;;;;6.57;6.07;;;27.80;1.00;;;;;;5091870;28;20438;-40
2023/05/14 11:27:15;;;;;;;7.80;7.20;;;27.60;1.00;;;;;;5071294;28;20832;-41
2023/05/14 11:29:45;;;;;;;6.53;5.93;;;27.90;1.00;;;;;;5071290;28;20478;-42
2023/05/14 11:32:12;;;;;;;6.80;6.30;;;28.00;1.00;;;;;;5072577;28;21055;-42
2023/05/14 11:34:39;;;;;;;7.00;6.50;;;28.40;1.00;;;;;;5075893;28;20439;-42
2023/05/14 11:37:11;;;;;;;6.60;6.00;;;28.30;1.00;;;;;;5077196;28;20419;-42
2023/05/14 11:39:38;;;;;;;6.57;6.07;;;28.40;1.00;;;;;;5078717;28;20415;-42
2023/05/14 11:42:11;;;;;;;7.00;6.40;;;28.40;1.00;;;;;;5078262;28;20517;-44
2023/05/14 11:44:45;;;;;;;6.17;5.63;;;28.50;1.00;;;;;;5077716;28;20570;-43
2023/05/14 11:47:12;;;;;;;5.83;5.43;;;28.80;1.00;;;;;;5077918;28;20469;-43
2023/05/14 11:49:39;;;;;;;6.00;5.40;;;28.70;1.00;;;;;;5093768;28;20964;-43
2023/05/14 11:52:07;;;;;;;5.70;5.20;;;28.80;1.00;;;;;;5099245;28;20422;-43
2023/05/14 11:54:33;;;;;;;6.00;5.50;;;29.30;1.00;;;;;;5097022;28;20580;-43
2023/05/14 11:57:06;;;;;;;7.10;6.60;;;29.00;1.00;;;;;;5097196;28;20414;-44
2023/05/14 11:59:32;;;;;;;6.50;6.00;;;28.60;1.00;;;;;;5098709;28;20490;-45
2023/05/14 12:01:58;;;;;;;6.70;6.17;;;27.60;1.00;;;;;;5080909;28;20433;-43
2023/05/14 12:04:24;;;;;;;8.07;7.47;;;26.90;1.00;;;;;;5095137;28;20414;-43
2023/05/14 12:06:53;;;;;;;8.97;7.57;;;26.00;1.00;;;;;;5093286;28;20196;-44
2023/05/14 12:09:20;;;;;;;7.67;7.07;;;25.00;1.00;;;;;;5095054;28;20485;-44
2023/05/14 12:11:47;;;;;;;8.60;7.90;;;24.10;1.00;;;;;;5095667;28;20444;-42
2023/05/14 12:14:22;;;;;;;7.27;6.67;;;23.30;1.00;;;;;;5079421;28;20513;-42
2023/05/14 12:16:49;;;;;;;7.57;6.97;;;22.70;1.00;;;;;;5096620;28;20468;-44
2023/05/14 12:19:19;;;;;;;8.67;7.97;;;22.30;1.00;;;;;;5095969;28;20429;-41
2023/05/14 12:21:47;;;;;;;7.97;7.17;;;22.00;1.00;;;;;;5094929;28;20418;-41
2023/05/14 12:24:15;;;;;;;9.50;8.60;;;21.80;1.00;;;;;;5096495;28;20532;-41
2023/05/14 12:26:48;;;;;;;7.27;6.67;;;21.70;1.00;;;;;;5092873;28;20438;-43
2023/05/14 12:29:14;;;;;;;6.97;6.30;;;21.50;1.00;;;;;;5077396;28;20937;-42
2023/05/14 12:31:48;;;;;;;6.93;6.43;;;21.50;1.00;;;;;;5095409;28;20913;-41
2023/05/14 12:34:14;;;;;;;7.03;6.33;;;21.50;1.00;;;;;;5096387;28;20509;-42
2023/05/14 12:36:41;;;;;;;7.67;6.97;;;21.60;1.00;;;;;;5096348;28;20411;-41
2023/05/14 12:39:06;;;;;;;7.23;6.60;;;21.60;1.00;;;;;;5095727;28;20422;-42
2023/05/14 12:41:32;;;;;;;7.30;6.70;;;21.70;1.00;;;;;;5079193;28;20699;-42
2023/05/14 12:43:59;;;;;;;8.07;7.37;;;21.70;1.00;;;;;;5077439;28;20173;-43